createdAt,value
2023-04-25T00:00:51.587Z,999.83
2023-04-25T00:03:24.956Z,999.81
2023-04-25T00:06:01.825Z,999.78
2023-04-25T00:08:34.960Z,999.78
2023-04-25T00:11:07.881Z,999.77
2023-04-25T00:13:40.920Z,999.76
2023-04-25T00:16:13.870Z,999.75
2023-04-25T00:18:46.919Z,999.75
2023-04-25T00:21:20.080Z,999.74
2023-04-25T00:23:53.604Z,999.76
2023-04-25T00:26:26.588Z,999.76
2023-04-25T00:28:59.718Z,999.77
2023-04-25T00:31:33.506Z,999.79
2023-04-25T00:34:07.004Z,999.79
2023-04-25T00:36:39.729Z,999.80
2023-04-25T00:39:13.182Z,999.79
2023-04-25T00:41:46.978Z,999.79
2023-04-25T00:44:19.951Z,999.79
2023-04-25T00:46:52.667Z,999.78
2023-04-25T00:49:25.743Z,999.78
2023-04-25T00:51:58.945Z,999.77
2023-04-25T00:54:32.124Z,999.75
2023-04-25T00:57:05.919Z,999.74
2023-04-25T00:59:38.939Z,999.71
2023-04-25T01:02:12.110Z,999.70
2023-04-25T01:04:45.003Z,999.70
2023-04-25T01:07:17.785Z,999.67
2023-04-25T01:09:50.949Z,999.68
2023-04-25T01:12:23.847Z,999.68
2023-04-25T01:14:56.650Z,999.69
2023-04-25T01:17:29.945Z,999.68
2023-04-25T01:20:02.818Z,999.66
2023-04-25T01:22:36.069Z,999.66
2023-04-25T01:25:09.235Z,999.64
2023-04-25T01:27:43.149Z,999.64
2023-04-25T01:30:17.030Z,999.63
2023-04-25T01:32:50.058Z,999.63
2023-04-25T01:35:23.218Z,999.62
2023-04-25T01:37:56.696Z,999.62
2023-04-25T01:40:29.852Z,999.62
2023-04-25T01:43:02.979Z,999.62
2023-04-25T01:45:36.176Z,999.61
2023-04-25T01:48:10.105Z,999.62
2023-04-25T01:50:42.983Z,999.62
2023-04-25T01:53:16.033Z,999.63
2023-04-25T01:55:49.040Z,999.63
2023-04-25T01:58:21.983Z,999.63
2023-04-25T02:00:54.758Z,999.62
2023-04-25T02:03:34.301Z,999.62
2023-04-25T02:06:07.020Z,999.61
2023-04-25T02:08:40.058Z,999.61
2023-04-25T02:11:12.878Z,999.61
2023-04-25T02:13:46.109Z,999.61
2023-04-25T02:16:19.281Z,999.61
2023-04-25T02:18:52.109Z,999.61
2023-04-25T02:21:25.080Z,999.59
2023-04-25T02:23:57.896Z,999.59
2023-04-25T02:26:31.122Z,999.57
2023-04-25T02:29:04.122Z,999.58
2023-04-25T02:31:36.938Z,999.56
2023-04-25T02:34:10.070Z,999.56
2023-04-25T02:36:43.392Z,999.56
2023-04-25T02:39:16.871Z,999.56
2023-04-25T02:41:50.062Z,999.56
2023-04-25T02:44:22.960Z,999.53
2023-04-25T02:46:55.824Z,999.51
2023-04-25T02:49:29.417Z,999.49
2023-04-25T02:52:03.007Z,999.48
2023-04-25T02:54:36.154Z,999.47
2023-04-25T02:57:09.130Z,999.44
2023-04-25T02:59:42.203Z,999.42
2023-04-25T03:02:15.237Z,999.40
2023-04-25T03:04:47.955Z,999.41
2023-04-25T03:07:20.829Z,999.42
2023-04-25T03:09:53.840Z,999.44
2023-04-25T03:12:27.124Z,999.46
2023-04-25T03:14:59.922Z,999.46
2023-04-25T03:17:33.030Z,999.44
2023-04-25T03:20:06.288Z,999.44
2023-04-25T03:22:39.152Z,999.43
2023-04-25T03:25:12.134Z,999.43
2023-04-25T03:27:45.442Z,999.42
2023-04-25T03:30:19.143Z,999.43
2023-04-25T03:32:51.909Z,999.42
2023-04-25T03:35:26.138Z,999.41
2023-04-25T03:37:58.145Z,999.40
2023-04-25T03:40:31.201Z,999.37
2023-04-25T03:43:04.159Z,999.38
2023-04-25T03:45:37.218Z,999.37
2023-04-25T03:48:10.301Z,999.37
2023-04-25T03:50:43.466Z,999.36
2023-04-25T03:53:17.222Z,999.37
2023-04-25T03:55:49.909Z,999.39
2023-04-25T03:58:23.321Z,999.41
2023-04-25T04:00:56.203Z,999.41
2023-04-25T04:03:29.417Z,999.42
2023-04-25T04:06:02.061Z,999.44
2023-04-25T04:08:35.467Z,999.47
2023-04-25T04:11:08.920Z,999.50
2023-04-25T04:13:42.110Z,999.52
2023-04-25T04:16:15.244Z,999.52
2023-04-25T04:18:48.487Z,999.52
2023-04-25T04:21:22.402Z,999.54
2023-04-25T04:23:55.951Z,999.56
2023-04-25T04:26:29.116Z,999.58
2023-04-25T04:29:02.054Z,999.60
2023-04-25T04:31:35.369Z,999.60
2023-04-25T04:34:08.069Z,999.60
2023-04-25T04:36:41.204Z,999.61
2023-04-25T04:39:14.257Z,999.62
2023-04-25T04:41:47.090Z,999.65
2023-04-25T04:44:20.084Z,999.67
2023-04-25T04:46:53.289Z,999.69
2023-04-25T04:49:25.972Z,999.70
2023-04-25T04:51:59.902Z,999.71
2023-04-25T04:54:33.405Z,999.73
2023-04-25T04:57:05.995Z,999.75
2023-04-25T04:59:39.361Z,999.78
2023-04-25T05:02:12.363Z,999.82
2023-04-25T05:04:45.316Z,999.84
2023-04-25T05:07:18.224Z,999.88
2023-04-25T05:09:51.304Z,999.90
2023-04-25T05:12:24.305Z,999.94
2023-04-25T05:14:57.313Z,999.96
2023-04-25T05:17:31.225Z,999.99
2023-04-25T05:20:04.020Z,999.99
2023-04-25T05:22:37.097Z,1000.00
2023-04-25T05:25:10.033Z,1000.01
2023-04-25T05:27:43.387Z,1000.06
2023-04-25T05:30:22.198Z,1000.08
2023-04-25T05:32:55.412Z,1000.10
2023-04-25T05:35:28.220Z,1000.11
2023-04-25T05:38:01.211Z,1000.14
2023-04-25T05:40:34.192Z,1000.15
2023-04-25T05:43:07.144Z,1000.18
2023-04-25T05:45:40.502Z,1000.20
2023-04-25T05:48:13.528Z,1000.22
2023-04-25T05:50:46.379Z,1000.24
2023-04-25T05:53:19.271Z,1000.25
2023-04-25T05:55:52.345Z,1000.29
2023-04-25T05:58:25.446Z,1000.30
2023-04-25T06:00:58.355Z,1000.32
2023-04-25T06:03:31.695Z,1000.34
2023-04-25T06:06:04.519Z,1000.36
2023-04-25T06:08:38.507Z,1000.39
2023-04-25T06:11:11.415Z,1000.43
2023-04-25T06:13:44.495Z,1000.46
2023-04-25T06:16:17.452Z,1000.47
2023-04-25T06:18:50.377Z,1000.49
2023-04-25T06:21:23.245Z,1000.52
2023-04-25T06:23:58.332Z,1000.54
2023-04-25T06:26:31.300Z,1000.56
2023-04-25T06:29:04.350Z,1000.57
2023-04-25T06:31:37.253Z,1000.57
2023-04-25T06:34:10.259Z,1000.58
2023-04-25T06:36:43.563Z,1000.59
2023-04-25T06:39:17.369Z,1000.59
2023-04-25T06:41:50.326Z,1000.59
2023-04-25T06:44:23.273Z,1000.60
2023-04-25T06:46:56.431Z,1000.59
2023-04-25T06:49:29.346Z,1000.61
2023-04-25T06:52:02.712Z,1000.62
2023-04-25T06:54:36.673Z,1000.65
2023-04-25T06:57:10.466Z,1000.67
2023-04-25T06:59:43.240Z,1000.68
2023-04-25T07:02:16.652Z,1000.71
2023-04-25T07:04:49.464Z,1000.75
2023-04-25T07:07:22.502Z,1000.80
2023-04-25T07:09:55.225Z,1000.84
2023-04-25T07:12:28.305Z,1000.90
2023-04-25T07:15:01.574Z,1000.92
2023-04-25T07:17:34.297Z,1000.95
2023-04-25T07:20:07.611Z,1000.96
2023-04-25T07:22:40.737Z,1000.97
2023-04-25T07:25:14.705Z,1000.98
2023-04-25T07:27:48.656Z,1000.99
2023-04-25T07:30:22.469Z,1001.01
2023-04-25T07:32:55.511Z,1001.03
2023-04-25T07:35:42.426Z,1001.04
2023-04-25T07:38:15.617Z,1001.05
2023-04-25T07:40:48.413Z,1001.07
2023-04-25T07:43:21.676Z,1001.09
2023-04-25T07:45:55.217Z,1001.11
2023-04-25T07:48:28.680Z,1001.12
2023-04-25T07:51:01.478Z,1001.13
2023-04-25T07:53:34.635Z,1001.15
2023-04-25T07:56:07.463Z,1001.16
2023-04-25T07:58:40.644Z,1001.18
2023-04-25T08:01:13.698Z,1001.19
2023-04-25T08:03:48.006Z,1001.22
2023-04-25T08:06:21.863Z,1001.23
2023-04-25T08:08:55.544Z,1001.26
2023-04-25T08:11:28.531Z,1001.30
2023-04-25T08:14:01.449Z,1001.33
2023-04-25T08:16:34.673Z,1001.37
2023-04-25T08:19:07.568Z,1001.41
2023-04-25T08:21:40.456Z,1001.45
2023-04-25T08:24:13.772Z,1001.49
2023-04-25T08:26:47.613Z,1001.54
2023-04-25T08:29:20.776Z,1001.56
2023-04-25T08:31:54.604Z,1001.60
2023-04-25T08:34:27.703Z,1001.61
2023-04-25T08:37:00.566Z,1001.64
2023-04-25T08:39:33.764Z,1001.66
2023-04-25T08:42:07.465Z,1001.69
2023-04-25T08:44:40.798Z,1001.72
2023-04-25T08:47:13.786Z,1001.76
2023-04-25T08:49:46.726Z,1001.79
2023-04-25T08:52:19.475Z,1001.81
2023-04-25T08:54:52.347Z,1001.84
2023-04-25T08:57:25.509Z,1001.85
2023-04-25T08:59:58.611Z,1001.88
2023-04-25T09:02:31.602Z,1001.90
2023-04-25T09:05:04.816Z,1001.92
2023-04-25T09:07:38.722Z,1001.95
2023-04-25T09:10:11.636Z,1001.98
2023-04-25T09:12:44.711Z,1002.02
2023-04-25T09:17:50.730Z,1002.05
2023-04-25T09:20:23.598Z,1002.08
2023-04-25T09:22:56.656Z,1002.09
2023-04-25T09:25:29.924Z,1002.12
2023-04-25T09:28:03.696Z,1002.16
2023-04-25T09:30:36.492Z,1002.18
2023-04-25T09:33:09.864Z,1002.21
2023-04-25T09:35:43.526Z,1002.23
2023-04-25T09:38:16.624Z,1002.25
2023-04-25T09:40:49.408Z,1002.29
2023-04-25T09:43:22.658Z,1002.31
2023-04-25T09:45:57.431Z,1002.34
2023-04-25T09:48:28.835Z,1002.36
2023-04-25T09:51:01.763Z,1002.38
2023-04-25T09:53:34.928Z,1002.41
2023-04-25T09:56:08.730Z,1002.44
2023-04-25T09:58:41.788Z,1002.46
2023-04-25T10:01:14.602Z,1002.48
2023-04-25T10:03:47.886Z,1002.53
2023-04-25T10:06:20.524Z,1002.55
2023-04-25T10:08:53.720Z,1002.57
2023-04-25T10:11:26.693Z,1002.61
2023-04-25T10:13:59.502Z,1002.63
2023-04-25T10:16:32.636Z,1002.66
2023-04-25T10:19:05.791Z,1002.66
2023-04-25T10:21:38.775Z,1002.67
2023-04-25T10:24:11.789Z,1002.67
2023-04-25T10:26:44.590Z,1002.68
2023-04-25T10:29:17.801Z,1002.69
2023-04-25T10:31:50.796Z,1002.72
2023-04-25T10:34:23.776Z,1002.75
2023-04-25T10:36:56.750Z,1002.76
2023-04-25T10:39:29.601Z,1002.79
2023-04-25T10:42:02.681Z,1002.79
2023-04-25T10:44:35.772Z,1002.81
2023-04-25T10:47:09.054Z,1002.83
2023-04-25T10:49:41.630Z,1002.85
2023-04-25T10:52:14.699Z,1002.88
2023-04-25T10:54:47.676Z,1002.91
2023-04-25T10:57:20.759Z,1002.93
2023-04-25T10:59:56.794Z,1002.96
2023-04-25T11:02:29.741Z,1002.96
2023-04-25T11:05:02.940Z,1002.97
2023-04-25T11:07:35.596Z,1002.98
2023-04-25T11:10:08.818Z,1003.01
2023-04-25T11:12:41.885Z,1003.03
2023-04-25T11:15:14.702Z,1003.03
2023-04-25T11:17:47.742Z,1003.04
2023-04-25T11:20:20.746Z,1003.04
2023-04-25T11:22:53.888Z,1003.04
2023-04-25T11:25:26.903Z,1003.03
2023-04-25T11:27:59.858Z,1003.03
2023-04-25T11:30:32.598Z,1003.02
2023-04-25T11:33:05.680Z,1003.04
2023-04-25T11:35:38.909Z,1003.04
2023-04-25T11:38:11.593Z,1003.04
2023-04-25T11:40:44.776Z,1003.06
2023-04-25T11:43:21.377Z,1003.08
2023-04-25T11:45:50.797Z,1003.09
2023-04-25T11:48:25.944Z,1003.11
2023-04-25T11:50:56.611Z,1003.11
2023-04-25T11:53:29.649Z,1003.12
2023-04-25T11:56:02.593Z,1003.14
2023-04-25T11:58:35.835Z,1003.16
2023-04-25T12:01:08.683Z,1003.19
2023-04-25T12:03:41.883Z,1003.22
2023-04-25T12:06:14.954Z,1003.24
2023-04-25T12:08:48.078Z,1003.26
2023-04-25T12:11:20.743Z,1003.27
2023-04-25T12:13:53.648Z,1003.30
2023-04-25T12:16:27.012Z,1003.32
2023-04-25T12:18:59.648Z,1003.34
2023-04-25T12:21:33.393Z,1003.34
2023-04-25T12:24:05.932Z,1003.35
2023-04-25T12:26:39.052Z,1003.35
2023-04-25T12:29:11.708Z,1003.36
2023-04-25T12:31:45.113Z,1003.37
2023-04-25T12:34:17.712Z,1003.37
2023-04-25T12:36:50.901Z,1003.37
2023-04-25T12:39:23.781Z,1003.37
2023-04-25T12:41:56.656Z,1003.38
2023-04-25T12:44:29.803Z,1003.40
2023-04-25T12:47:02.831Z,1003.43
2023-04-25T12:49:35.873Z,1003.45
2023-04-25T12:52:08.804Z,1003.47
2023-04-25T12:54:41.713Z,1003.50
2023-04-25T12:57:15.028Z,1003.53
2023-04-25T12:59:47.854Z,1003.53
2023-04-25T13:02:20.970Z,1003.53
2023-04-25T13:04:53.877Z,1003.54
2023-04-25T13:07:26.860Z,1003.56
2023-04-25T13:09:59.761Z,1003.57
2023-04-25T13:12:32.824Z,1003.57
2023-04-25T13:15:05.856Z,1003.57
2023-04-25T13:17:38.912Z,1003.57
2023-04-25T13:20:11.709Z,1003.58
2023-04-25T13:22:44.935Z,1003.55
2023-04-25T13:25:17.991Z,1003.53
2023-04-25T13:27:50.976Z,1003.52
2023-04-25T13:30:23.917Z,1003.53
2023-04-25T13:32:57.037Z,1003.53
2023-04-25T13:35:29.901Z,1003.55
2023-04-25T13:38:02.755Z,1003.55
2023-04-25T13:40:35.907Z,1003.58
2023-04-25T13:43:09.105Z,1003.60
2023-04-25T13:45:42.134Z,1003.61
2023-04-25T13:48:14.915Z,1003.63
2023-04-25T13:50:48.115Z,1003.64
2023-04-25T13:53:20.776Z,1003.66
2023-04-25T13:55:53.770Z,1003.67
2023-04-25T13:58:26.960Z,1003.69
2023-04-25T14:00:59.792Z,1003.70
2023-04-25T14:03:46.768Z,1003.75
2023-04-25T14:06:19.911Z,1003.77
2023-04-25T14:08:52.952Z,1003.82
2023-04-25T14:11:25.990Z,1003.83
2023-04-25T14:13:58.785Z,1003.87
2023-04-25T14:16:32.057Z,1003.90
2023-04-25T14:19:04.937Z,1003.92
2023-04-25T14:21:38.223Z,1003.92
2023-04-25T14:24:10.922Z,1003.93
2023-04-25T14:26:43.967Z,1003.92
2023-04-25T14:29:16.943Z,1003.93
2023-04-25T14:31:50.253Z,1003.94
2023-04-25T14:34:23.169Z,1003.93
2023-04-25T14:36:56.241Z,1003.91
2023-04-25T14:39:29.310Z,1003.90
2023-04-25T14:42:02.804Z,1003.90
2023-04-25T14:44:36.026Z,1003.89
2023-04-25T14:47:08.922Z,1003.89
2023-04-25T14:49:42.112Z,1003.90
2023-04-25T14:52:15.003Z,1003.91
2023-04-25T14:54:48.080Z,1003.91
2023-04-25T14:57:21.018Z,1003.92
2023-04-25T14:59:54.068Z,1003.93
2023-04-25T15:05:04.963Z,1003.98
2023-04-25T15:07:37.989Z,1003.99
2023-04-25T15:10:11.016Z,1004.00
2023-04-25T15:12:45.139Z,1004.01
2023-04-25T15:15:26.796Z,1004.02
2023-04-25T15:17:58.756Z,1004.02
2023-04-25T15:20:29.207Z,1004.04
2023-04-25T15:23:02.186Z,1004.05
2023-04-25T15:25:35.271Z,1004.06
2023-04-25T15:28:08.148Z,1004.06
2023-04-25T15:30:41.203Z,1004.08
2023-04-25T15:33:14.522Z,1004.09
2023-04-25T15:35:48.264Z,1004.11
2023-04-25T15:38:21.035Z,1004.12
2023-04-25T15:40:54.008Z,1004.14
2023-04-25T15:43:27.018Z,1004.16
2023-04-25T15:46:00.408Z,1004.19
2023-04-25T15:48:33.072Z,1004.20
2023-04-25T15:51:09.754Z,1004.21
2023-04-25T15:53:43.279Z,1004.21
2023-04-25T15:56:16.354Z,1004.22
2023-04-25T15:58:49.351Z,1004.22
2023-04-25T16:01:22.335Z,1004.24
2023-04-25T16:03:55.562Z,1004.24
2023-04-25T16:06:27.984Z,1004.24
2023-04-25T16:09:01.149Z,1004.25
2023-04-25T16:11:33.988Z,1004.25
2023-04-25T16:14:07.437Z,1004.23
2023-04-25T16:16:41.344Z,1004.23
2023-04-25T16:19:14.110Z,1004.22
2023-04-25T16:21:47.220Z,1004.22
2023-04-25T16:24:20.112Z,1004.23
2023-04-25T16:26:53.409Z,1004.26
2023-04-25T16:29:26.203Z,1004.27
2023-04-25T16:31:59.350Z,1004.29
2023-04-25T16:34:32.361Z,1004.31
2023-04-25T16:37:05.049Z,1004.36
2023-04-25T16:39:38.119Z,1004.39
2023-04-25T16:42:11.281Z,1004.40
2023-04-25T16:44:58.072Z,1004.44
2023-04-25T16:47:31.352Z,1004.45
2023-04-25T16:50:04.321Z,1004.47
2023-04-25T16:52:37.156Z,1004.49
2023-04-25T16:55:10.279Z,1004.50
2023-04-25T16:57:43.336Z,1004.49
2023-04-25T17:00:16.200Z,1004.51
2023-04-25T17:02:49.310Z,1004.54
2023-04-25T17:05:22.434Z,1004.53
2023-04-25T17:07:55.439Z,1004.53
2023-04-25T17:10:28.391Z,1004.52
2023-04-25T17:13:01.062Z,1004.51
2023-04-25T17:15:34.595Z,1004.52
2023-04-25T17:18:07.170Z,1004.53
2023-04-25T17:20:40.205Z,1004.55
2023-04-25T17:23:13.465Z,1004.59
2023-04-25T17:25:46.092Z,1004.62
2023-04-25T17:28:19.300Z,1004.65
2023-04-25T17:30:52.134Z,1004.66
2023-04-25T17:33:25.269Z,1004.69
2023-04-25T17:35:58.235Z,1004.69
2023-04-25T17:38:31.451Z,1004.71
2023-04-25T17:41:04.086Z,1004.75
2023-04-25T17:43:37.245Z,1004.79
2023-04-25T17:46:10.193Z,1004.81
2023-04-25T17:48:43.414Z,1004.85
2023-04-25T17:51:16.283Z,1004.87
2023-04-25T17:53:49.278Z,1004.89
2023-04-25T17:56:27.243Z,1004.92
2023-04-25T17:58:55.332Z,1004.93
2023-04-25T18:01:28.207Z,1004.94
2023-04-25T18:04:01.348Z,1004.95
2023-04-25T18:06:34.248Z,1004.97
2023-04-25T18:09:07.176Z,1005.02
2023-04-25T18:11:40.517Z,1005.05
2023-04-25T18:14:13.293Z,1005.06
2023-04-25T18:16:46.266Z,1005.09
2023-04-25T18:19:19.476Z,1005.11
2023-04-25T18:21:52.310Z,1005.14
2023-04-25T18:24:25.457Z,1005.18
2023-04-25T18:26:58.233Z,1005.20
2023-04-25T18:29:33.629Z,1005.24
2023-04-25T18:32:04.427Z,1005.29
2023-04-25T18:34:37.305Z,1005.34
2023-04-25T18:37:10.196Z,1005.39
2023-04-25T18:39:43.338Z,1005.44
2023-04-25T18:42:16.346Z,1005.48
2023-04-25T18:44:49.512Z,1005.52
2023-04-25T18:47:22.375Z,1005.54
2023-04-25T18:49:55.552Z,1005.57
2023-04-25T18:52:28.512Z,1005.59
2023-04-25T18:55:01.428Z,1005.60
2023-04-25T18:57:34.395Z,1005.63
2023-04-25T19:00:07.213Z,1005.64
2023-04-25T19:02:40.582Z,1005.67
2023-04-25T19:05:13.484Z,1005.70
2023-04-25T19:07:46.388Z,1005.74
2023-04-25T19:10:19.297Z,1005.76
2023-04-25T19:12:52.218Z,1005.79
2023-04-25T19:15:25.381Z,1005.81
2023-04-25T19:17:58.501Z,1005.83
2023-04-25T19:20:31.786Z,1005.86
2023-04-25T19:23:05.333Z,1005.87
2023-04-25T19:25:38.501Z,1005.88
2023-04-25T19:28:17.471Z,1005.89
2023-04-25T19:30:50.684Z,1005.91
2023-04-25T19:33:23.286Z,1005.94
2023-04-25T19:35:56.786Z,1005.96
2023-04-25T19:38:30.561Z,1005.97
2023-04-25T19:41:03.466Z,1005.97
2023-04-25T19:43:36.345Z,1005.97
2023-04-25T19:46:09.599Z,1006.00
2023-04-25T19:48:42.833Z,1006.02
2023-04-25T19:51:16.587Z,1006.03
2023-04-25T19:53:49.766Z,1006.05
2023-04-25T19:56:22.629Z,1006.08
2023-04-25T19:58:55.288Z,1006.11
2023-04-25T20:01:28.506Z,1006.13
2023-04-25T20:04:01.696Z,1006.17
2023-04-25T20:06:34.550Z,1006.21
2023-04-25T20:09:07.606Z,1006.23
2023-04-25T20:11:40.422Z,1006.23
2023-04-25T20:14:13.610Z,1006.24
2023-04-25T20:16:46.533Z,1006.25
2023-04-25T20:19:19.308Z,1006.24
2023-04-25T20:21:52.464Z,1006.24
2023-04-25T20:24:25.454Z,1006.23
2023-04-25T20:26:58.544Z,1006.24
2023-04-25T20:29:31.468Z,1006.25
2023-04-25T20:32:04.653Z,1006.26
2023-04-25T20:34:37.731Z,1006.26
2023-04-25T20:37:10.692Z,1006.28
2023-04-25T20:39:45.552Z,1006.30
2023-04-25T20:42:18.669Z,1006.32
2023-04-25T20:44:51.700Z,1006.34
2023-04-25T20:47:24.653Z,1006.35
2023-04-25T20:49:57.687Z,1006.36
2023-04-25T20:52:30.755Z,1006.38
2023-04-25T20:55:03.596Z,1006.41
2023-04-25T20:57:36.780Z,1006.43
2023-04-25T21:00:09.693Z,1006.44
2023-04-25T21:02:42.974Z,1006.45
2023-04-25T21:05:15.802Z,1006.45
2023-04-25T21:07:48.818Z,1006.44
2023-04-25T21:10:21.681Z,1006.46
2023-04-25T21:12:54.847Z,1006.48
2023-04-25T21:15:27.726Z,1006.49
2023-04-25T21:18:00.832Z,1006.50
2023-04-25T21:20:33.860Z,1006.50
2023-04-25T21:23:07.723Z,1006.50
2023-04-25T21:25:40.702Z,1006.51
2023-04-25T21:28:13.782Z,1006.50
2023-04-25T21:30:46.764Z,1006.50
2023-04-25T21:33:19.718Z,1006.50
2023-04-25T21:35:52.853Z,1006.50
2023-04-25T21:38:25.772Z,1006.48
2023-04-25T21:40:58.987Z,1006.49
2023-04-25T21:43:32.769Z,1006.50
2023-04-25T21:46:22.365Z,1006.50
2023-04-25T21:48:38.843Z,1006.52
2023-04-25T21:51:11.709Z,1006.54
2023-04-25T21:53:44.864Z,1006.54
2023-04-25T21:56:17.846Z,1006.56
2023-04-25T21:58:51.012Z,1006.58
2023-04-25T22:01:29.833Z,1006.61
2023-04-25T22:04:02.964Z,1006.65
2023-04-25T22:06:35.769Z,1006.66
2023-04-25T22:09:08.481Z,1006.69
2023-04-25T22:11:41.582Z,1006.73
2023-04-25T22:14:14.594Z,1006.77
2023-04-25T22:16:47.691Z,1006.80
2023-04-25T22:19:20.772Z,1006.82
2023-04-25T22:21:53.818Z,1006.86
2023-04-25T22:24:26.814Z,1006.88
2023-04-25T22:26:59.834Z,1006.91
2023-04-25T22:29:32.939Z,1006.93
2023-04-25T22:32:19.839Z,1006.96
2023-04-25T22:34:52.896Z,1006.98
2023-04-25T22:37:25.786Z,1007.01
2023-04-25T22:39:58.830Z,1007.04
2023-04-25T22:42:31.813Z,1007.07
2023-04-25T22:45:04.826Z,1007.08
2023-04-25T22:47:37.974Z,1007.11
2023-04-25T22:50:10.843Z,1007.14
2023-04-25T22:52:43.541Z,1007.17
2023-04-25T22:55:17.037Z,1007.21
2023-04-25T22:57:50.804Z,1007.22
2023-04-25T23:00:23.829Z,1007.23
2023-04-25T23:02:57.147Z,1007.27
2023-04-25T23:05:29.881Z,1007.30
2023-04-25T23:08:03.009Z,1007.32
2023-04-25T23:10:36.887Z,1007.34
2023-04-25T23:13:09.982Z,1007.35
2023-04-25T23:15:56.962Z,1007.37
2023-04-25T23:18:29.928Z,1007.38
2023-04-25T23:21:02.868Z,1007.39
2023-04-25T23:23:35.983Z,1007.40
2023-04-25T23:26:08.684Z,1007.41
2023-04-25T23:28:42.153Z,1007.42
2023-04-25T23:31:16.080Z,1007.42
2023-04-25T23:33:48.702Z,1007.42
2023-04-25T23:36:21.857Z,1007.42
2023-04-25T23:38:55.072Z,1007.44
2023-04-25T23:41:28.615Z,1007.45
2023-04-25T23:44:01.724Z,1007.47
2023-04-25T23:46:34.892Z,1007.50
2023-04-25T23:49:07.896Z,1007.51
2023-04-25T23:51:40.741Z,1007.52
2023-04-25T23:54:14.062Z,1007.53
2023-04-25T23:56:46.923Z,1007.54
2023-04-25T23:59:19.959Z,1007.55
